Time;durP1;ratioP1;P1;durP2;ratioP2;P2;SDS_P1;SDS_P2;PMS_P1;PMS_P2;Temp;Humidity;BMP_temperature;BMP_pressure;BME280_temperature;BME280_humidity;BME280_pressure;Samples;Min_cycle;Max_cycle;Signal;HPM_P1;HPM_P2
2021/05/28 00:02:09;;;;;;;17.87;7.40;;;10.30;99.90;;;;;;5092130;28;20164;-61
2021/05/28 00:04:35;;;;;;;10.37;7.03;;;10.30;99.90;;;;;;5089353;28;20175;-61
2021/05/28 00:07:00;;;;;;;9.40;6.40;;;10.30;99.90;;;;;;5091815;28;20168;-61
2021/05/28 00:09:26;;;;;;;19.67;7.50;;;10.30;99.90;;;;;;5092080;28;20183;-61
2021/05/28 00:11:52;;;;;;;15.23;7.63;;;10.30;99.90;;;;;;5092074;28;20190;-61
2021/05/28 00:14:18;;;;;;;8.87;7.30;;;10.30;99.90;;;;;;5089428;28;20189;-61
2021/05/28 00:16:44;;;;;;;12.20;7.50;;;10.30;99.90;;;;;;5091421;28;20172;-60
2021/05/28 00:19:09;;;;;;;11.77;7.60;;;10.30;99.90;;;;;;5090172;28;20201;-61
2021/05/28 00:21:35;;;;;;;15.47;7.33;;;10.40;99.90;;;;;;5091965;28;20160;-61
2021/05/28 00:24:01;;;;;;;10.20;7.97;;;10.60;99.90;;;;;;5091676;28;20198;-61
2021/05/28 00:26:27;;;;;;;15.20;8.87;;;11.00;99.90;;;;;;5089875;28;20220;-60
2021/05/28 00:28:52;;;;;;;9.77;8.77;;;11.10;99.90;;;;;;5091745;28;20168;-60
2021/05/28 00:31:19;;;;;;;20.07;11.07;;;11.30;99.90;;;;;;5091869;28;20246;-61
2021/05/28 00:33:45;;;;;;;20.90;11.20;;;11.30;99.90;;;;;;5091514;28;20215;-60
2021/05/28 00:36:11;;;;;;;16.97;10.30;;;11.30;99.90;;;;;;5089194;28;20160;-60
2021/05/28 00:38:37;;;;;;;14.60;10.67;;;11.00;99.90;;;;;;5091783;28;20187;-60
2021/05/28 00:41:02;;;;;;;13.17;9.80;;;10.90;99.90;;;;;;5091731;28;20171;-60
2021/05/28 00:43:28;;;;;;;13.93;10.43;;;10.80;99.90;;;;;;5091553;28;20156;-60
2021/05/28 00:45:54;;;;;;;23.37;11.10;;;10.60;99.90;;;;;;5089234;28;20168;-60
2021/05/28 00:48:20;;;;;;;18.77;10.13;;;10.60;99.90;;;;;;5091897;28;20176;-61
2021/05/28 00:50:45;;;;;;;15.60;11.57;;;10.80;99.90;;;;;;5091672;28;20210;-61
2021/05/28 00:53:12;;;;;;;21.67;11.87;;;10.90;99.90;;;;;;5088082;28;20160;-61
2021/05/28 00:55:37;;;;;;;19.33;12.30;;;10.70;99.90;;;;;;5085697;28;20191;-60
2021/05/28 00:58:03;;;;;;;18.20;13.30;;;10.80;99.90;;;;;;5088316;28;20191;-60
2021/05/28 01:00:29;;;;;;;26.57;12.47;;;10.80;99.90;;;;;;5087254;28;20172;-60
2021/05/28 01:02:55;;;;;;;26.90;12.37;;;10.70;99.90;;;;;;5088331;28;20160;-61
2021/05/28 01:05:21;;;;;;;26.00;12.73;;;10.40;99.90;;;;;;5085579;28;20281;-60
2021/05/28 01:07:47;;;;;;;15.57;11.17;;;10.20;99.90;;;;;;5088391;28;20506;-60
2021/05/28 01:10:14;;;;;;;14.87;11.13;;;10.00;99.90;;;;;;5088155;28;20240;-60
2021/05/28 01:12:41;;;;;;;14.93;10.63;;;9.90;99.90;;;;;;5087017;28;20194;-60
2021/05/28 01:15:08;;;;;;;12.63;9.73;;;9.80;99.90;;;;;;5085123;28;20184;-61
2021/05/28 01:17:35;;;;;;;10.83;8.97;;;9.70;99.90;;;;;;5088285;28;20157;-60
2021/05/28 01:20:02;;;;;;;13.17;9.57;;;9.70;99.90;;;;;;5087871;28;20203;-61
2021/05/28 01:22:27;;;;;;;12.70;9.37;;;9.70;99.90;;;;;;5088102;28;20164;-61
2021/05/28 01:24:53;;;;;;;12.93;8.63;;;9.80;99.90;;;;;;5085214;28;20168;-60
2021/05/28 01:27:20;;;;;;;17.03;9.27;;;9.70;99.90;;;;;;5086636;28;20267;-60
2021/05/28 01:29:47;;;;;;;14.23;8.80;;;9.70;99.90;;;;;;5087780;28;20203;-61
2021/05/28 01:32:14;;;;;;;11.23;8.07;;;9.70;99.90;;;;;;5087762;28;20238;-61
2021/05/28 01:34:39;;;;;;;10.20;7.93;;;9.70;99.90;;;;;;5084525;28;20207;-62
2021/05/28 01:37:05;;;;;;;10.63;8.30;;;9.70;99.90;;;;;;5087554;28;20238;-62
2021/05/28 01:39:31;;;;;;;11.70;8.10;;;9.70;99.90;;;;;;5086463;28;20196;-62
2021/05/28 01:41:56;;;;;;;8.17;7.33;;;9.60;99.90;;;;;;5087875;28;20156;-62
2021/05/28 01:44:22;;;;;;;15.77;8.63;;;9.60;99.90;;;;;;5084730;28;20175;-63
2021/05/28 01:46:49;;;;;;;13.37;8.77;;;9.60;99.90;;;;;;5087545;28;20163;-62
2021/05/28 01:49:16;;;;;;;8.67;7.63;;;9.70;99.90;;;;;;5087405;28;20164;-62
2021/05/28 01:51:51;;;;;;;12.63;8.77;;;9.50;99.90;;;;;;5087786;28;20247;-62
2021/05/28 01:54:18;;;;;;;10.00;8.30;;;9.60;99.90;;;;;;5085217;28;20203;-62
2021/05/28 01:56:47;;;;;;;13.97;8.70;;;9.60;99.90;;;;;;5087142;28;20167;-62
2021/05/28 01:59:26;;;;;;;17.63;10.40;;;9.50;99.90;;;;;;5086919;28;20187;-62
2021/05/28 02:01:53;;;;;;;14.60;9.20;;;9.50;99.90;;;;;;5087321;28;20697;-62
2021/05/28 02:04:22;;;;;;;12.10;8.87;;;9.50;99.90;;;;;;5083853;28;20259;-62
2021/05/28 02:06:47;;;;;;;15.03;8.90;;;9.60;99.90;;;;;;5086956;28;20625;-62
2021/05/28 02:09:13;;;;;;;20.73;8.90;;;9.50;99.90;;;;;;5087214;28;20171;-62
2021/05/28 02:11:39;;;;;;;11.10;8.30;;;9.50;99.90;;;;;;5087147;28;20168;-62
2021/05/28 02:14:05;;;;;;;16.07;9.57;;;9.40;99.90;;;;;;5085835;28;20183;-62
2021/05/28 02:16:35;;;;;;;14.60;8.60;;;9.50;99.90;;;;;;5085239;28;20205;-62
2021/05/28 02:19:01;;;;;;;11.77;8.13;;;9.40;99.90;;;;;;5086722;28;20200;-62
2021/05/28 02:21:28;;;;;;;13.40;8.70;;;9.30;99.90;;;;;;5085748;28;20168;-62
2021/05/28 02:23:55;;;;;;;12.33;7.83;;;9.30;99.90;;;;;;5086583;28;20159;-62
2021/05/28 02:26:21;;;;;;;10.67;6.83;;;9.40;99.90;;;;;;5084153;28;20239;-62
2021/05/28 02:28:46;;;;;;;8.90;6.27;;;9.30;99.90;;;;;;5086310;28;20180;-62
2021/05/28 02:31:12;;;;;;;9.53;8.07;;;9.20;99.90;;;;;;5086715;28;20164;-62
2021/05/28 02:33:38;;;;;;;12.90;9.00;;;9.20;99.90;;;;;;5086683;28;20544;-62
2021/05/28 02:36:04;;;;;;;10.10;9.00;;;9.20;99.90;;;;;;5083766;28;20203;-62
2021/05/28 02:38:30;;;;;;;10.53;8.87;;;9.10;99.90;;;;;;5086788;28;20556;-62
2021/05/28 02:40:56;;;;;;;12.70;8.10;;;9.10;99.90;;;;;;5086491;28;20172;-62
2021/05/28 02:43:21;;;;;;;12.10;9.20;;;9.10;99.90;;;;;;5085052;28;20166;-62
2021/05/28 02:45:47;;;;;;;14.03;9.10;;;9.20;99.90;;;;;;5083373;28;20160;-62
2021/05/28 02:48:13;;;;;;;15.73;9.80;;;9.30;99.90;;;;;;5086406;28;20171;-62
2021/05/28 02:50:38;;;;;;;20.93;11.27;;;9.20;99.90;;;;;;5086386;28;20170;-62
2021/05/28 02:53:04;;;;;;;17.57;11.57;;;9.40;99.90;;;;;;5086220;28;20243;-62
2021/05/28 02:55:31;;;;;;;24.20;11.70;;;9.60;99.90;;;;;;5083636;28;20645;-62
2021/05/28 02:57:57;;;;;;;12.63;10.47;;;9.50;99.90;;;;;;5086641;28;20202;-62
2021/05/28 03:00:23;;;;;;;20.30;11.33;;;9.20;99.90;;;;;;5085995;28;20168;-62
2021/05/28 03:02:50;;;;;;;16.07;11.80;;;9.00;99.90;;;;;;5086216;28;20171;-62
2021/05/28 03:05:17;;;;;;;13.63;10.67;;;9.00;99.90;;;;;;5083112;28;20179;-62
2021/05/28 03:07:43;;;;;;;15.20;10.97;;;8.90;99.90;;;;;;5086271;28;20192;-62
2021/05/28 03:10:09;;;;;;;11.67;9.77;;;8.90;99.90;;;;;;5085940;28;20709;-62
2021/05/28 03:12:35;;;;;;;12.17;9.33;;;8.90;99.90;;;;;;5086262;28;20168;-62
2021/05/28 03:15:01;;;;;;;15.10;9.63;;;8.90;99.90;;;;;;5082673;28;20235;-62
2021/05/28 03:17:26;;;;;;;12.60;9.73;;;8.90;99.90;;;;;;5085834;28;20170;-62
2021/05/28 03:19:53;;;;;;;11.67;10.00;;;8.80;99.90;;;;;;5085933;28;20195;-62
2021/05/28 03:22:34;;;;;;;11.17;9.50;;;8.80;99.90;;;;;;5085988;28;20170;-62
2021/05/28 03:25:11;;;;;;;17.00;10.10;;;8.80;99.90;;;;;;5082975;28;20243;-62
2021/05/28 03:27:37;;;;;;;14.97;11.60;;;8.90;99.90;;;;;;5085926;28;20164;-62
2021/05/28 03:30:08;;;;;;;28.67;15.33;;;8.90;99.90;;;;;;5085141;28;20175;-62
2021/05/28 03:32:34;;;;;;;30.80;17.23;;;9.00;99.90;;;;;;5085932;28;20171;-62
2021/05/28 03:35:00;;;;;;;23.67;14.60;;;8.80;99.90;;;;;;5082355;28;20211;-62
2021/05/28 03:37:26;;;;;;;29.60;14.77;;;8.80;99.90;;;;;;5085870;28;20160;-62
2021/05/28 03:39:52;;;;;;;27.23;13.27;;;8.80;99.90;;;;;;5085650;28;20192;-62
2021/05/28 03:42:18;;;;;;;25.80;15.03;;;8.80;99.90;;;;;;5085303;28;20156;-62
2021/05/28 03:44:45;;;;;;;43.47;18.23;;;8.80;99.90;;;;;;5082757;28;20656;-62
2021/05/28 03:47:11;;;;;;;40.07;19.47;;;8.80;99.90;;;;;;5085499;28;20696;-62
2021/05/28 03:49:39;;;;;;;31.77;16.37;;;8.90;99.90;;;;;;5085714;28;20194;-62
2021/05/28 03:52:05;;;;;;;27.63;14.40;;;8.90;99.90;;;;;;5085563;28;20219;-62
2021/05/28 03:54:31;;;;;;;29.87;15.20;;;8.90;99.90;;;;;;5082674;28;20175;-62
2021/05/28 03:56:57;;;;;;;25.23;15.07;;;8.90;99.90;;;;;;5085453;28;20183;-62
2021/05/28 03:59:22;;;;;;;21.93;14.40;;;8.90;99.90;;;;;;5085257;28;20564;-62
2021/05/28 04:01:48;;;;;;;20.43;13.57;;;8.80;99.90;;;;;;5085119;28;20672;-62
2021/05/28 04:04:14;;;;;;;22.23;13.67;;;8.80;99.90;;;;;;5083532;28;20179;-62
2021/05/28 04:06:40;;;;;;;31.30;14.30;;;8.80;99.90;;;;;;5084326;28;20160;-62
2021/05/28 04:09:05;;;;;;;28.10;15.27;;;8.80;99.90;;;;;;5084253;28;20193;-62
2021/05/28 04:11:31;;;;;;;24.40;13.63;;;8.90;99.90;;;;;;5085385;28;20171;-62
2021/05/28 04:13:57;;;;;;;24.43;14.50;;;9.00;99.90;;;;;;5084998;28;20168;-62
2021/05/28 04:16:22;;;;;;;29.03;14.43;;;9.00;99.90;;;;;;5082352;28;20645;-62
2021/05/28 04:18:48;;;;;;;34.00;16.60;;;9.10;99.90;;;;;;5085224;28;20195;-62
2021/05/28 04:21:13;;;;;;;24.53;14.80;;;9.00;99.90;;;;;;5084967;28;20165;-62
2021/05/28 04:23:39;;;;;;;54.33;21.47;;;9.10;99.90;;;;;;5084928;28;20695;-62
2021/05/28 04:26:05;;;;;;;56.20;23.87;;;9.20;99.90;;;;;;5082344;28;20703;-62
2021/05/28 04:28:30;;;;;;;51.50;23.10;;;9.30;99.90;;;;;;5086348;28;20156;-62
2021/05/28 04:30:57;;;;;;;37.60;19.67;;;9.50;99.90;;;;;;5088276;28;20175;-63
2021/05/28 04:33:23;;;;;;;31.73;20.40;;;9.40;99.90;;;;;;5088215;28;20213;-62
2021/05/28 04:35:49;;;;;;;36.90;20.23;;;9.20;99.90;;;;;;5085756;28;20691;-62
2021/05/28 04:38:15;;;;;;;35.23;20.87;;;9.20;99.90;;;;;;5088320;28;20196;-62
2021/05/28 04:40:41;;;;;;;31.10;19.97;;;9.10;99.90;;;;;;5088578;28;20163;-62
2021/05/28 04:43:07;;;;;;;40.27;18.97;;;9.00;99.90;;;;;;5088495;28;20633;-62
2021/05/28 04:45:33;;;;;;;28.00;19.53;;;9.20;99.90;;;;;;5085753;28;20160;-62
2021/05/28 04:47:58;;;;;;;32.63;20.10;;;9.40;99.90;;;;;;5088605;28;20192;-62
2021/05/28 04:50:31;;;;;;;35.47;22.30;;;9.40;99.90;;;;;;5088283;28;20160;-62
2021/05/28 04:53:01;;;;;;;33.53;20.90;;;9.60;99.90;;;;;;5087638;28;20172;-62
2021/05/28 04:55:28;;;;;;;28.90;20.53;;;9.60;99.90;;;;;;5084807;28;20614;-62
2021/05/28 04:57:54;;;;;;;29.30;19.50;;;9.40;99.90;;;;;;5087758;28;20237;-61
2021/05/28 05:00:22;;;;;;;27.03;18.83;;;9.60;99.90;;;;;;5088057;28;20172;-61
2021/05/28 05:02:47;;;;;;;19.30;16.27;;;9.50;99.90;;;;;;5088161;28;20157;-61
2021/05/28 05:05:14;;;;;;;16.83;15.13;;;9.60;99.90;;;;;;5085736;28;20164;-61
2021/05/28 05:07:40;;;;;;;21.50;16.17;;;9.60;99.90;;;;;;5088403;28;20168;-61
2021/05/28 05:10:06;;;;;;;21.50;16.77;;;9.60;99.90;;;;;;5086920;28;20160;-61
2021/05/28 05:12:32;;;;;;;21.73;16.03;;;9.60;99.90;;;;;;5088355;28;20559;-61
2021/05/28 05:14:58;;;;;;;18.30;14.53;;;9.60;99.90;;;;;;5085161;28;20175;-61
2021/05/28 05:17:24;;;;;;;18.37;13.73;;;9.70;99.90;;;;;;5088429;28;20156;-61
2021/05/28 05:19:49;;;;;;;21.30;14.80;;;9.80;99.90;;;;;;5087975;28;20241;-61
2021/05/28 05:22:15;;;;;;;22.43;15.73;;;9.80;99.90;;;;;;5087634;28;20247;-61
2021/05/28 05:24:41;;;;;;;20.33;15.23;;;9.90;99.90;;;;;;5083899;28;20375;-61
2021/05/28 05:27:06;;;;;;;25.83;16.07;;;9.90;99.90;;;;;;5087819;28;20167;-61
2021/05/28 05:29:32;;;;;;;22.57;14.87;;;10.00;99.90;;;;;;5087864;28;20229;-61
2021/05/28 05:31:58;;;;;;;22.30;15.13;;;10.00;99.90;;;;;;5088032;28;20168;-61
2021/05/28 05:34:24;;;;;;;19.90;15.27;;;10.00;99.90;;;;;;5083600;28;20214;-61
2021/05/28 05:36:50;;;;;;;18.53;14.97;;;10.10;99.90;;;;;;5087741;28;20537;-61
2021/05/28 05:39:15;;;;;;;22.30;14.33;;;10.20;99.90;;;;;;5087244;28;20198;-61
2021/05/28 05:41:41;;;;;;;19.93;14.63;;;10.30;99.90;;;;;;5087746;28;20691;-61
2021/05/28 05:44:07;;;;;;;19.20;13.87;;;10.30;99.90;;;;;;5086605;28;20660;-61
2021/05/28 05:46:33;;;;;;;20.77;14.30;;;10.40;99.90;;;;;;5084469;28;20184;-61
2021/05/28 05:48:58;;;;;;;29.67;17.43;;;10.40;99.90;;;;;;5087532;28;20406;-61
2021/05/28 05:51:24;;;;;;;24.03;16.33;;;10.60;99.90;;;;;;5087844;28;20437;-61
2021/05/28 05:53:50;;;;;;;27.17;17.67;;;10.70;99.90;;;;;;5087341;28;20164;-61
2021/05/28 05:56:16;;;;;;;32.73;19.87;;;10.70;99.90;;;;;;5084720;28;20168;-61
2021/05/28 05:58:42;;;;;;;37.40;21.93;;;10.80;99.90;;;;;;5087088;28;20207;-60
2021/05/28 06:01:08;;;;;;;37.03;26.65;;;10.80;99.90;;;;;;5086181;28;20425;-61
2021/05/28 06:03:34;;;;;;;46.90;24.47;;;11.20;99.90;;;;;;5087166;28;20160;-61
2021/05/28 06:06:00;;;;;;;27.57;20.90;;;11.30;99.90;;;;;;5084481;28;20159;-61
2021/05/28 06:08:25;;;;;;;35.03;21.70;;;11.40;99.90;;;;;;5087049;28;20271;-61
2021/05/28 06:10:51;;;;;;;32.90;21.17;;;11.60;99.90;;;;;;5087088;28;20164;-61
2021/05/28 06:13:17;;;;;;;37.08;21.73;;;11.60;99.90;;;;;;5086826;28;20171;-61
2021/05/28 06:15:43;;;;;;;34.13;21.50;;;11.80;99.90;;;;;;5083983;28;20209;-61
2021/05/28 06:18:08;;;;;;;30.85;20.80;;;11.70;99.90;;;;;;5086882;28;20164;-61
2021/05/28 06:20:34;;;;;;;29.33;21.02;;;11.70;99.90;;;;;;5086885;28;20167;-61
2021/05/28 06:23:00;;;;;;;29.67;20.97;;;11.80;99.90;;;;;;5086756;28;20164;-61
2021/05/28 06:25:27;;;;;;;37.80;20.95;;;11.90;99.90;;;;;;5084231;28;20168;-61
2021/05/28 06:27:53;;;;;;;35.10;20.77;;;12.00;99.90;;;;;;5086886;28;20190;-61
2021/05/28 06:30:19;;;;;;;34.70;21.38;;;12.20;99.90;;;;;;5085835;28;20168;-60
2021/05/28 06:32:44;;;;;;;35.50;21.13;;;12.30;99.90;;;;;;5086566;28;20246;-61
2021/05/28 06:35:10;;;;;;;32.92;19.08;;;12.50;99.90;;;;;;5083423;28;20592;-62
2021/05/28 06:37:36;;;;;;;31.80;18.10;;;12.50;99.90;;;;;;5086640;28;20164;-62
2021/05/28 06:40:04;;;;;;;34.60;19.23;;;12.70;99.90;;;;;;5086329;28;20187;-61
2021/05/28 06:42:29;;;;;;;29.05;17.30;;;12.80;99.90;;;;;;5086769;28;20246;-62
2021/05/28 06:44:55;;;;;;;28.77;17.20;;;13.00;99.90;;;;;;5083404;28;20164;-62
2021/05/28 06:47:21;;;;;;;30.52;17.65;;;13.10;99.90;;;;;;5086218;28;20167;-61
2021/05/28 06:49:46;;;;;;;27.25;16.95;;;13.50;99.90;;;;;;5086314;28;20164;-62
2021/05/28 06:52:12;;;;;;;25.60;18.15;;;13.40;99.90;;;;;;5085648;28;20596;-62
2021/05/28 06:54:38;;;;;;;35.15;19.25;;;13.40;99.90;;;;;;5083586;28;20398;-62
2021/05/28 06:57:04;;;;;;;32.40;17.23;;;13.40;99.90;;;;;;5086156;28;20160;-62
2021/05/28 06:59:30;;;;;;;28.98;17.77;;;13.40;99.90;;;;;;5085963;28;20195;-62
2021/05/28 07:01:56;;;;;;;21.65;14.68;;;13.40;99.90;;;;;;5086187;28;20164;-62
2021/05/28 07:04:22;;;;;;;32.20;18.48;;;13.50;99.90;;;;;;5083419;28;20691;-62
2021/05/28 07:06:48;;;;;;;35.90;17.25;;;13.60;99.90;;;;;;5086221;28;20215;-62
2021/05/28 07:09:14;;;;;;;22.98;16.20;;;13.80;99.90;;;;;;5086063;28;20168;-62
2021/05/28 07:11:39;;;;;;;27.90;17.25;;;13.80;99.90;;;;;;5086123;28;20168;-62
2021/05/28 07:14:05;;;;;;;26.92;17.35;;;13.90;99.90;;;;;;5085057;28;20172;-62
2021/05/28 07:16:31;;;;;;;24.02;16.48;;;14.00;99.90;;;;;;5084080;28;20160;-62
2021/05/28 07:18:57;;;;;;;27.05;17.40;;;14.10;99.90;;;;;;5085863;28;20195;-62
2021/05/28 07:21:24;;;;;;;31.13;18.40;;;14.40;99.90;;;;;;5085859;28;20228;-62
2021/05/28 07:23:50;;;;;;;19.92;15.95;;;14.80;99.90;;;;;;5085908;28;20156;-62
2021/05/28 07:26:15;;;;;;;30.38;16.13;;;15.10;99.90;;;;;;5082988;28;20675;-62
2021/05/28 07:28:41;;;;;;;24.63;16.60;;;15.20;99.90;;;;;;5085799;28;20346;-61
2021/05/28 07:31:06;;;;;;;32.53;17.77;;;15.20;99.90;;;;;;5085399;28;20184;-60
2021/05/28 07:33:32;;;;;;;19.52;15.00;;;15.40;99.90;;;;;;5085667;28;20188;-62
2021/05/28 07:35:58;;;;;;;27.27;16.70;;;15.50;99.90;;;;;;5082996;28;20581;-61
2021/05/28 07:38:24;;;;;;;25.75;17.65;;;15.50;99.90;;;;;;5084122;28;20191;-61
2021/05/28 07:40:49;;;;;;;30.75;17.33;;;15.30;99.90;;;;;;5085735;28;20167;-61
2021/05/28 07:43:15;;;;;;;30.35;19.95;;;15.40;99.90;;;;;;5085579;28;20160;-61
2021/05/28 07:45:41;;;;;;;28.77;19.48;;;15.50;99.90;;;;;;5082629;28;20179;-61
2021/05/28 07:48:07;;;;;;;28.90;20.48;;;15.20;99.90;;;;;;5085642;28;20167;-61
2021/05/28 07:50:45;;;;;;;32.03;19.63;;;15.00;99.90;;;;;;5085667;28;20621;-61
2021/05/28 07:53:15;;;;;;;27.25;18.60;;;14.90;99.90;;;;;;5085472;28;20159;-61
2021/05/28 07:55:41;;;;;;;27.63;19.05;;;14.90;99.90;;;;;;5082756;28;20180;-60
2021/05/28 07:58:07;;;;;;;27.85;19.58;;;15.00;99.90;;;;;;5085433;28;20186;-62
2021/05/28 08:00:33;;;;;;;36.55;22.27;;;15.10;99.90;;;;;;5085391;28;20168;-62
2021/05/28 08:03:01;;;;;;;36.50;23.63;;;15.00;99.90;;;;;;5087630;28;20228;-62
2021/05/28 08:05:27;;;;;;;41.95;22.95;;;15.10;99.90;;;;;;5086941;28;20194;-62
2021/05/28 08:07:54;;;;;;;32.22;21.75;;;15.20;99.90;;;;;;5088244;28;20160;-62
2021/05/28 08:10:20;;;;;;;32.05;21.90;;;15.30;99.90;;;;;;5089416;28;20174;-60
2021/05/28 08:12:47;;;;;;;36.17;21.80;;;15.20;99.90;;;;;;5089487;28;20172;-61
2021/05/28 08:15:13;;;;;;;32.00;21.13;;;15.20;99.90;;;;;;5086146;28;20171;-60
2021/05/28 08:17:39;;;;;;;28.05;19.13;;;15.30;99.90;;;;;;5088029;28;20160;-61
2021/05/28 08:20:05;;;;;;;23.55;18.95;;;15.40;99.90;;;;;;5088930;28;20199;-61
2021/05/28 08:22:31;;;;;;;29.98;18.75;;;15.50;99.90;;;;;;5088165;28;20292;-61
2021/05/28 08:24:56;;;;;;;24.13;18.10;;;15.60;99.90;;;;;;5086439;28;20665;-61
2021/05/28 08:27:22;;;;;;;29.65;18.63;;;15.70;99.90;;;;;;5089062;28;20152;-61
2021/05/28 08:29:48;;;;;;;26.00;17.15;;;16.00;99.90;;;;;;5088409;28;20183;-61
2021/05/28 08:32:15;;;;;;;24.95;17.10;;;16.00;99.90;;;;;;5088038;28;20171;-61
2021/05/28 08:34:41;;;;;;;29.88;16.52;;;16.10;99.90;;;;;;5085807;28;20514;-61
2021/05/28 08:37:06;;;;;;;18.67;14.00;;;16.20;99.90;;;;;;5088630;28;20168;-61
2021/05/28 08:39:32;;;;;;;21.00;11.40;;;16.20;99.90;;;;;;5087523;28;20608;-60
2021/05/28 08:41:59;;;;;;;16.33;11.93;;;16.40;99.90;;;;;;5089066;28;20192;-61
2021/05/28 08:44:26;;;;;;;19.25;11.48;;;16.70;99.90;;;;;;5085969;28;20183;-61
2021/05/28 08:46:53;;;;;;;21.60;13.90;;;16.70;99.90;;;;;;5088627;28;20176;-60
2021/05/28 08:49:20;;;;;;;23.48;12.55;;;16.40;99.90;;;;;;5088681;28;20162;-61
2021/05/28 08:51:46;;;;;;;14.48;11.00;;;16.40;99.90;;;;;;5088392;28;20528;-61
2021/05/28 08:54:12;;;;;;;18.27;11.95;;;16.50;99.90;;;;;;5087092;28;20164;-61
2021/05/28 08:56:38;;;;;;;15.07;10.15;;;16.60;99.90;;;;;;5087243;28;20305;-62
2021/05/28 08:59:05;;;;;;;20.38;11.35;;;16.70;99.90;;;;;;5088235;28;20206;-61
2021/05/28 09:01:31;;;;;;;18.63;10.65;;;16.90;99.90;;;;;;5088564;28;20156;-61
2021/05/28 09:03:59;;;;;;;16.27;10.13;;;16.80;99.90;;;;;;5088448;28;20210;-62
2021/05/28 09:06:35;;;;;;;13.73;9.98;;;16.80;99.90;;;;;;5084502;28;20172;-61
2021/05/28 09:09:10;;;;;;;23.40;9.90;;;16.80;99.90;;;;;;5088195;28;20168;-61
2021/05/28 09:11:57;;;;;;;12.68;7.95;;;17.00;99.90;;;;;;5088281;28;20167;-61
2021/05/28 09:14:43;;;;;;;12.77;9.63;;;17.20;99.90;;;;;;5084468;28;20164;-61
2021/05/28 09:17:10;;;;;;;14.32;10.00;;;17.30;99.90;;;;;;5088045;28;20174;-61
2021/05/28 09:19:38;;;;;;;17.35;9.45;;;17.40;99.90;;;;;;5087975;28;20256;-61
2021/05/28 09:22:06;;;;;;;14.27;6.68;;;17.40;99.90;;;;;;5087901;28;20195;-61
2021/05/28 09:24:35;;;;;;;10.77;6.88;;;17.60;99.90;;;;;;5085495;28;20224;-61
2021/05/28 09:27:33;;;;;;;9.77;6.78;;;17.80;99.90;;;;;;5087804;28;20241;-61
2021/05/28 09:30:08;;;;;;;9.88;6.60;;;17.90;99.90;;;;;;5086386;28;20172;-61
2021/05/28 09:32:36;;;;;;;14.95;6.60;;;17.90;99.90;;;;;;5088035;28;20198;-61
2021/05/28 09:35:03;;;;;;;11.88;5.70;;;18.20;99.90;;;;;;5084684;28;20219;-61
2021/05/28 09:37:46;;;;;;;11.10;5.60;;;18.50;99.90;;;;;;5087868;28;20156;-61
2021/05/28 09:40:19;;;;;;;10.88;5.82;;;18.60;99.90;;;;;;5087660;28;20199;-61
2021/05/28 09:42:59;;;;;;;11.25;6.40;;;18.80;99.90;;;;;;5087920;28;20209;-61
2021/05/28 09:45:32;;;;;;;13.50;6.25;;;18.60;99.90;;;;;;5084618;28;20171;-61
2021/05/28 09:48:14;;;;;;;10.30;5.53;;;18.60;99.90;;;;;;5087875;28;20183;-61
2021/05/28 09:50:48;;;;;;;8.98;5.43;;;18.50;99.90;;;;;;5086290;28;20228;-61
2021/05/28 09:53:39;;;;;;;7.18;5.18;;;18.70;99.90;;;;;;5086315;28;20159;-61
2021/05/28 09:56:40;;;;;;;10.20;5.35;;;18.80;99.90;;;;;;5084263;28;20197;-61
2021/05/28 09:59:07;;;;;;;18.95;5.53;;;18.80;99.90;;;;;;5064414;28;20200;-61
2021/05/28 10:01:52;;;;;;;10.77;5.57;;;19.00;99.90;;;;;;5065323;28;20176;-61
2021/05/28 10:04:18;;;;;;;10.43;5.20;;;19.30;99.90;;;;;;5062734;28;20176;-61
2021/05/28 10:06:45;;;;;;;8.73;4.70;;;19.40;99.90;;;;;;5064406;28;20181;-61
2021/05/28 10:09:12;;;;;;;10.65;5.53;;;19.50;99.90;;;;;;5064825;28;20255;-61
2021/05/28 10:11:39;;;;;;;9.68;5.53;;;19.70;99.90;;;;;;5064816;28;20169;-61
2021/05/28 10:14:07;;;;;;;12.57;5.80;;;19.60;99.90;;;;;;5063701;28;20215;-61
2021/05/28 10:16:32;;;;;;;14.15;5.03;;;19.30;99.90;;;;;;5062793;28;20173;-62
2021/05/28 10:18:59;;;;;;;8.32;5.93;;;19.30;99.90;;;;;;5064803;28;20831;-61
2021/05/28 10:21:26;;;;;;;10.85;5.93;;;19.30;99.90;;;;;;5064506;28;20228;-61
2021/05/28 10:23:53;;;;;;;11.07;4.53;;;19.20;99.90;;;;;;5064646;28;20169;-61
2021/05/28 10:26:35;;;;;;;11.80;4.15;;;19.20;99.90;;;;;;5060538;28;20702;-61
2021/05/28 10:29:02;;;;;;;10.07;4.45;;;19.40;99.90;;;;;;5064086;28;20283;-61
2021/05/28 10:31:53;;;;;;;8.15;4.72;;;19.50;99.90;;;;;;5064481;28;20184;-61
2021/05/28 10:34:20;;;;;;;11.23;5.50;;;19.60;99.90;;;;;;5084183;28;20211;-61
2021/05/28 10:36:46;;;;;;;6.32;4.45;;;19.80;99.90;;;;;;5086305;28;20180;-61
2021/05/28 10:39:19;;;;;;;9.48;4.63;;;20.00;99.90;;;;;;5086323;28;20215;-61
2021/05/28 10:41:48;;;;;;;5.00;4.25;;;20.00;99.90;;;;;;5086729;28;20164;-61
2021/05/28 10:44:16;;;;;;;11.57;4.90;;;20.20;99.90;;;;;;5084319;28;20175;-61
2021/05/28 10:47:18;;;;;;;8.68;4.50;;;20.40;99.90;;;;;;5085502;28;20168;-61
2021/05/28 10:49:47;;;;;;;8.55;4.95;;;20.40;99.90;;;;;;5086219;28;20163;-62
2021/05/28 10:52:29;;;;;;;8.63;4.60;;;20.30;99.90;;;;;;5086214;28;20160;-61
2021/05/28 10:55:07;;;;;;;11.57;4.65;;;20.40;99.90;;;;;;5083523;28;20156;-61
2021/05/28 10:57:42;;;;;;;10.07;4.55;;;20.20;99.90;;;;;;5086240;28;20160;-61
2021/05/28 11:00:09;;;;;;;7.97;4.88;;;20.20;99.90;;;;;;5084918;28;20187;-61
2021/05/28 11:02:44;;;;;;;12.52;4.78;;;20.40;99.90;;;;;;5085831;28;20167;-61
2021/05/28 11:05:10;;;;;;;8.02;3.65;;;20.70;99.90;;;;;;5083234;28;20184;-61
2021/05/28 11:07:36;;;;;;;5.97;4.43;;;20.70;99.90;;;;;;5086295;28;20179;-61
2021/05/28 11:10:32;;;;;;;7.47;4.10;;;21.00;99.90;;;;;;5085756;28;20164;-61
2021/05/28 11:13:15;;;;;;;8.70;4.70;;;20.80;99.90;;;;;;5076480;28;20210;-61
2021/05/28 11:15:54;;;;;;;9.80;4.60;;;21.20;99.90;;;;;;5082802;28;20250;-61
2021/05/28 11:18:31;;;;;;;7.53;4.80;;;21.30;99.90;;;;;;5086040;28;20168;-61
2021/05/28 11:21:17;;;;;;;6.18;4.13;;;21.60;99.90;;;;;;5085952;28;20160;-61
2021/05/28 11:23:49;;;;;;;8.82;4.32;;;21.80;99.90;;;;;;5086106;28;20164;-62
2021/05/28 11:26:28;;;;;;;10.02;5.00;;;22.20;99.90;;;;;;5082994;28;20171;-61
2021/05/28 11:28:58;;;;;;;9.43;4.82;;;22.80;99.90;;;;;;5084813;28;20168;-61
2021/05/28 11:31:33;;;;;;;9.88;4.45;;;22.80;99.90;;;;;;5085705;28;20184;-62
2021/05/28 11:34:00;;;;;;;6.55;4.75;;;22.90;99.90;;;;;;5085620;28;20215;-62
2021/05/28 11:36:31;;;;;;;9.23;4.82;;;22.80;99.90;;;;;;5083087;28;20642;-61
2021/05/28 11:39:05;;;;;;;9.45;4.07;;;23.20;99.90;;;;;;5085805;28;20210;-62
2021/05/28 11:42:03;;;;;;;8.27;4.35;;;23.60;99.90;;;;;;5085778;28;20330;-62
2021/05/28 11:44:31;;;;;;;13.95;4.32;;;23.50;99.90;;;;;;5082435;28;20370;-61
2021/05/28 11:46:58;;;;;;;8.35;4.28;;;23.30;99.90;;;;;;5085250;28;20201;-62
2021/05/28 11:49:24;;;;;;;12.43;4.30;;;23.30;99.90;;;;;;5085441;28;20164;-62
2021/05/28 11:52:07;;;;;;;7.78;4.25;;;23.50;99.90;;;;;;5085247;28;20704;-62
2021/05/28 11:54:36;;;;;;;4.47;3.58;;;23.70;99.90;;;;;;5082932;28;20167;-61
2021/05/28 11:57:09;;;;;;;5.68;3.55;;;23.00;99.90;;;;;;5085127;28;20156;-61
2021/05/28 11:59:49;;;;;;;8.25;4.63;;;22.60;99.90;;;;;;5085183;28;20204;-61
2021/05/28 12:02:37;;;;;;;7.05;3.15;;;22.70;99.90;;;;;;5085379;28;20714;-60
2021/05/28 12:05:05;;;;;;;7.60;3.83;;;23.00;99.90;;;;;;5082689;28;20172;-60
2021/05/28 12:07:31;;;;;;;6.82;3.10;;;23.20;99.90;;;;;;5085178;28;20152;-61
2021/05/28 12:10:11;;;;;;;4.57;2.65;;;23.50;99.90;;;;;;5085643;28;20193;-60
2021/05/28 12:12:58;;;;;;;5.68;3.45;;;23.70;99.90;;;;;;5085239;28;20928;-61
2021/05/28 12:15:30;;;;;;;4.30;3.00;;;24.20;99.90;;;;;;5080939;28;20196;-60
2021/05/28 12:17:57;;;;;;;4.15;2.90;;;23.90;99.90;;;;;;5085853;28;20168;-61
2021/05/28 12:20:29;;;;;;;4.93;3.08;;;23.70;99.90;;;;;;5085151;28;20202;-61
2021/05/28 12:23:05;;;;;;;8.32;3.08;;;23.00;99.90;;;;;;5084954;28;20489;-61
2021/05/28 12:25:58;;;;;;;5.50;2.85;;;23.50;99.90;;;;;;5082510;28;20171;-61
2021/05/28 12:28:37;;;;;;;6.22;3.55;;;23.20;99.90;;;;;;5083929;28;20179;-61
2021/05/28 12:31:17;;;;;;;6.45;3.13;;;22.60;99.90;;;;;;5083879;28;20478;-61
2021/05/28 12:33:55;;;;;;;5.53;3.55;;;22.70;99.90;;;;;;5083615;28;20172;-61
2021/05/28 12:36:37;;;;;;;6.28;3.20;;;23.10;99.90;;;;;;5082419;28;20191;-61
2021/05/28 12:39:06;;;;;;;6.35;2.90;;;23.10;99.90;;;;;;5085223;28;20192;-61
2021/05/28 12:41:33;;;;;;;6.78;3.42;;;23.30;99.90;;;;;;5085267;28;20221;-61
2021/05/28 12:44:00;;;;;;;6.72;3.13;;;23.50;99.90;;;;;;5084734;28;20164;-61